createdAt,value
2023-03-07T00:03:33.732Z,97552.20
2023-03-07T00:08:39.391Z,97556.11
2023-03-07T00:13:41.663Z,97558.45
2023-03-07T00:18:44.117Z,97557.48
2023-03-07T00:23:46.751Z,97547.88
2023-03-07T00:28:51.888Z,97545.06
2023-03-07T00:33:53.867Z,97540.11
2023-03-07T00:38:55.894Z,97537.91
2023-03-07T00:43:58.625Z,97541.04
2023-03-07T00:49:01.857Z,97539.59
2023-03-07T00:54:23.687Z,97533.33
2023-03-07T00:59:25.563Z,97527.83
2023-03-07T01:04:28.587Z,97527.67
2023-03-07T01:09:30.349Z,97522.06
2023-03-07T01:14:32.035Z,97521.05
2023-03-07T01:19:33.918Z,97518.32
2023-03-07T01:24:35.678Z,97508.22
2023-03-07T01:29:37.538Z,97504.48
2023-03-07T01:34:39.612Z,97501.96
2023-03-07T01:39:41.381Z,97503.02
2023-03-07T01:45:36.066Z,97498.75
2023-03-07T01:50:39.860Z,97495.98
2023-03-07T01:55:42.274Z,97492.23
2023-03-07T02:00:51.312Z,97486.48
2023-03-07T02:05:58.711Z,97483.86
2023-03-07T02:11:01.090Z,97481.91
2023-03-07T02:16:04.108Z,97473.03
2023-03-07T02:21:36.804Z,97470.17
2023-03-07T02:26:50.960Z,97472.25
2023-03-07T02:31:52.871Z,97470.73
2023-03-07T02:37:16.504Z,97468.48
2023-03-07T02:42:25.624Z,97467.69
2023-03-07T02:47:36.401Z,97462.24
2023-03-07T02:52:39.291Z,97461.70
2023-03-07T02:57:41.262Z,97455.50
2023-03-07T03:02:43.463Z,97456.13
2023-03-07T03:07:45.343Z,97461.80
2023-03-07T03:12:47.400Z,97461.70
2023-03-07T03:17:49.646Z,97466.17
2023-03-07T03:22:53.009Z,97464.77
2023-03-07T03:27:55.510Z,97463.94
2023-03-07T03:32:59.289Z,97463.57
2023-03-07T03:38:02.141Z,97460.30
2023-03-07T03:43:03.952Z,97463.75
2023-03-07T03:48:07.668Z,97464.37
2023-03-07T03:53:09.772Z,97463.09
2023-03-07T03:58:11.816Z,97463.70
2023-03-07T04:03:13.797Z,97468.39
2023-03-07T04:08:15.674Z,97481.83
2023-03-07T04:13:17.535Z,97481.83
2023-03-07T04:18:19.634Z,97476.58
2023-03-07T04:23:23.565Z,97477.66
2023-03-07T04:28:28.977Z,97468.70
2023-03-07T04:33:30.696Z,97466.20
2023-03-07T04:38:32.625Z,97470.36
2023-03-07T04:43:34.757Z,97469.27
2023-03-07T04:48:36.895Z,97464.04
2023-03-07T04:53:39.222Z,97457.91
2023-03-07T04:58:41.259Z,97452.91
2023-03-07T05:03:43.122Z,97455.50
2023-03-07T05:08:45.496Z,97450.42
2023-03-07T05:13:47.367Z,97447.67
2023-03-07T05:18:52.423Z,97443.05
2023-03-07T05:23:54.380Z,97441.41
2023-03-07T05:28:56.380Z,97447.96
2023-03-07T05:33:58.680Z,97447.30
2023-03-07T05:39:00.385Z,97445.57
2023-03-07T05:44:03.457Z,97439.70
2023-03-07T05:49:05.529Z,97438.48
2023-03-07T05:54:07.458Z,97441.64
2023-03-07T05:59:12.951Z,97439.80
2023-03-07T06:04:14.957Z,97441.65
2023-03-07T06:09:16.845Z,97438.80
2023-03-07T06:14:18.957Z,97442.38
2023-03-07T06:19:20.919Z,97438.54
2023-03-07T06:24:23.267Z,97438.69
2023-03-07T06:29:25.240Z,97434.52
2023-03-07T06:34:27.550Z,97434.98
2023-03-07T06:39:31.312Z,97439.77
2023-03-07T06:44:36.699Z,97433.73
2023-03-07T06:49:38.583Z,97428.54
2023-03-07T06:54:40.732Z,97421.92
2023-03-07T06:59:42.612Z,97420.66
2023-03-07T07:04:45.043Z,97419.70
2023-03-07T07:09:47.066Z,97420.23
2023-03-07T07:14:49.182Z,97418.11
2023-03-07T07:19:51.441Z,97416.20
2023-03-07T07:24:53.297Z,97419.17
2023-03-07T07:29:55.622Z,97420.56
2023-03-07T07:34:57.792Z,97418.75
2023-03-07T07:39:59.728Z,97409.26
2023-03-07T07:45:01.886Z,97415.63
2023-03-07T07:50:05.944Z,97408.78
2023-03-07T07:55:10.332Z,97400.88
2023-03-07T08:00:13.445Z,97401.96
2023-03-07T08:05:15.876Z,97390.82
2023-03-07T08:10:18.934Z,97388.68
2023-03-07T08:15:21.685Z,97379.23
2023-03-07T08:20:25.687Z,97373.00
2023-03-07T08:25:27.392Z,97368.42
2023-03-07T08:30:30.712Z,97363.36
2023-03-07T08:35:32.468Z,97364.73
2023-03-07T08:40:34.282Z,97368.30
2023-03-07T08:45:39.694Z,97369.83
2023-03-07T08:50:41.447Z,97372.70
2023-03-07T08:55:43.696Z,97370.31
2023-03-07T09:00:45.531Z,97364.84
2023-03-07T09:05:47.204Z,97368.55
2023-03-07T09:10:48.973Z,97365.16
2023-03-07T09:15:50.978Z,97361.42
2023-03-07T09:20:52.889Z,97358.21
2023-03-07T09:25:55.070Z,97359.73
2023-03-07T09:30:57.061Z,97352.30
2023-03-07T09:35:58.744Z,97342.51
2023-03-07T09:41:34.837Z,97334.54
2023-03-07T09:46:47.309Z,97322.50
2023-03-07T09:51:54.005Z,97319.07
2023-03-07T09:56:58.757Z,97310.36
2023-03-07T10:02:18.619Z,97317.27
2023-03-07T10:07:24.511Z,97311.23
2023-03-07T10:12:47.007Z,97303.66
2023-03-07T10:18:08.247Z,97293.34
2023-03-07T10:23:44.618Z,97288.21
2023-03-07T10:28:48.672Z,97292.86
2023-03-07T10:33:52.422Z,97289.14
2023-03-07T10:39:06.536Z,97289.21
2023-03-07T10:44:15.843Z,97289.48
2023-03-07T10:49:26.673Z,97281.83
2023-03-07T10:54:34.298Z,97278.18
2023-03-07T10:59:38.429Z,97278.86
2023-03-07T11:04:46.918Z,97274.20
2023-03-07T11:09:48.649Z,97265.29
2023-03-07T11:15:09.251Z,97257.23
2023-03-07T11:20:47.589Z,97254.14
2023-03-07T11:25:51.031Z,97255.48
2023-03-07T11:31:27.229Z,97251.73
2023-03-07T11:36:35.900Z,97249.22
2023-03-07T11:41:43.647Z,97243.27
2023-03-07T11:46:57.385Z,97235.48
2023-03-07T11:52:02.157Z,97223.63
2023-03-07T11:57:31.070Z,97224.09
2023-03-07T12:03:20.869Z,97218.52
2023-03-07T12:08:37.595Z,97217.23
2023-03-07T12:14:09.830Z,97214.26
2023-03-07T12:19:57.182Z,97206.47
2023-03-07T12:25:17.605Z,97202.66
2023-03-07T12:30:25.365Z,97197.09
2023-03-07T12:35:32.759Z,97195.50
2023-03-07T12:40:41.741Z,97190.16
2023-03-07T12:45:50.445Z,97183.91
2023-03-07T12:51:20.120Z,97181.65
2023-03-07T12:56:43.216Z,97176.27
2023-03-07T13:01:47.803Z,97179.98
2023-03-07T13:06:50.323Z,97173.10
2023-03-07T13:12:16.109Z,97168.64
2023-03-07T13:17:30.095Z,97169.45
2023-03-07T13:22:31.800Z,97168.80
2023-03-07T13:27:46.800Z,97166.71
2023-03-07T13:33:04.144Z,97165.48
2023-03-07T13:38:15.314Z,97166.29
2023-03-07T13:43:24.187Z,97162.51
2023-03-07T13:48:30.086Z,97163.75
2023-03-07T13:53:56.887Z,97154.27
2023-03-07T13:59:14.044Z,97140.59
2023-03-07T14:04:39.359Z,97129.45
2023-03-07T14:10:09.803Z,97127.07
2023-03-07T14:16:01.000Z,97117.45
2023-03-07T14:21:27.351Z,97103.63
2023-03-07T14:26:33.891Z,97106.44
2023-03-07T14:31:41.742Z,97105.95
2023-03-07T14:36:46.056Z,97097.52
2023-03-07T14:42:03.577Z,97093.59
2023-03-07T14:47:24.325Z,97095.81
2023-03-07T14:52:31.136Z,97094.58
2023-03-07T14:57:33.494Z,97093.45
2023-03-07T15:02:35.481Z,97085.62
2023-03-07T15:07:37.290Z,97082.20
2023-03-07T15:12:39.481Z,97087.02
2023-03-07T15:17:44.045Z,97086.25
2023-03-07T15:22:46.663Z,97078.66
2023-03-07T15:28:17.119Z,97070.37
2023-03-07T15:33:18.855Z,97065.28
2023-03-07T15:38:26.105Z,97063.20
2023-03-07T15:43:34.689Z,97054.29
2023-03-07T15:48:53.893Z,97053.17
2023-03-07T15:53:59.749Z,97053.91
2023-03-07T15:59:16.452Z,97055.68
2023-03-07T16:04:37.013Z,97059.87
2023-03-07T16:09:38.637Z,97053.36
2023-03-07T16:14:40.905Z,97048.52
2023-03-07T16:19:42.565Z,97050.42
2023-03-07T16:24:45.247Z,97047.11
2023-03-07T16:29:47.534Z,97040.21
2023-03-07T16:34:49.921Z,97034.16
2023-03-07T16:39:51.669Z,97033.38
2023-03-07T16:44:53.872Z,97027.17
2023-03-07T16:49:55.735Z,97026.18
2023-03-07T16:54:57.675Z,97031.30
2023-03-07T16:59:59.661Z,97035.37
2023-03-07T17:05:01.337Z,97037.40
2023-03-07T17:10:03.213Z,97035.20
2023-03-07T17:15:06.702Z,97039.63
2023-03-07T17:20:13.122Z,97043.70
2023-03-07T17:25:15.269Z,97044.55
2023-03-07T17:30:25.563Z,97046.77
2023-03-07T17:35:28.467Z,97047.25
2023-03-07T17:40:30.158Z,97043.18
2023-03-07T17:45:32.041Z,97045.19
2023-03-07T17:50:33.918Z,97039.75
2023-03-07T17:55:35.635Z,97038.73
2023-03-07T18:00:38.702Z,97035.17
2023-03-07T18:05:41.194Z,97037.09
2023-03-07T18:10:43.456Z,97034.59
2023-03-07T18:15:46.399Z,97040.39
2023-03-07T18:21:00.407Z,97043.12
2023-03-07T18:26:05.888Z,97044.51
2023-03-07T18:31:29.685Z,97044.52
2023-03-07T18:36:31.540Z,97040.80
2023-03-07T18:41:33.283Z,97046.04
2023-03-07T18:46:37.081Z,97048.92
2023-03-07T18:51:39.537Z,97053.14
2023-03-07T18:56:42.705Z,97049.57
2023-03-07T19:01:45.466Z,97046.67
2023-03-07T19:06:48.300Z,97040.05
2023-03-07T19:11:50.274Z,97047.68
2023-03-07T19:16:52.058Z,97047.70
2023-03-07T19:21:53.895Z,97052.80
2023-03-07T19:26:55.987Z,97052.65
2023-03-07T19:31:57.857Z,97055.34
2023-03-07T19:37:00.104Z,97047.53
2023-03-07T19:42:01.878Z,97041.60
2023-03-07T19:47:03.869Z,97036.69
2023-03-07T19:52:05.918Z,97032.65
2023-03-07T19:57:09.537Z,97030.98
2023-03-07T20:02:13.735Z,97026.95
2023-03-07T20:07:16.013Z,97026.44
2023-03-07T20:12:17.677Z,97021.20
2023-03-07T20:17:19.391Z,97020.19
2023-03-07T20:22:23.421Z,97024.79
2023-03-07T20:27:26.447Z,97019.73
2023-03-07T20:32:28.491Z,97018.22
2023-03-07T20:37:33.070Z,97013.12
2023-03-07T20:42:34.739Z,97010.91
2023-03-07T20:47:38.516Z,97013.27
2023-03-07T20:52:40.417Z,97013.45
2023-03-07T20:57:42.448Z,97013.30
2023-03-07T21:02:46.512Z,97013.15
2023-03-07T21:07:49.917Z,97016.71
2023-03-07T21:12:51.758Z,97013.00
2023-03-07T21:17:53.526Z,97009.95
2023-03-07T21:22:55.736Z,97010.29
2023-03-07T21:27:58.530Z,96999.30
2023-03-07T21:33:00.209Z,96997.80
2023-03-07T21:38:01.981Z,97003.70
2023-03-07T21:43:03.716Z,97000.15
2023-03-07T21:48:05.860Z,97005.22
2023-03-07T21:53:07.605Z,96999.13
2023-03-07T21:58:09.308Z,97006.43
2023-03-07T22:03:11.107Z,97004.90
2023-03-07T22:08:16.054Z,97007.42
2023-03-07T22:13:21.179Z,97014.70
2023-03-07T22:18:23.684Z,97014.38
2023-03-07T22:23:26.640Z,97020.29
2023-03-07T22:28:28.342Z,97018.94
2023-03-07T22:33:30.301Z,97016.23
2023-03-07T22:38:32.542Z,97031.46
2023-03-07T22:43:37.322Z,97034.17
2023-03-07T22:48:40.813Z,97040.61
2023-03-07T22:54:16.869Z,97040.11
2023-03-07T22:59:18.846Z,97040.11
2023-03-07T23:04:20.657Z,97042.83
2023-03-07T23:09:22.713Z,97041.65
2023-03-07T23:14:24.767Z,97041.33
2023-03-07T23:19:26.510Z,97039.63
2023-03-07T23:24:28.268Z,97041.65
2023-03-07T23:29:30.023Z,97035.55
2023-03-07T23:34:31.788Z,97038.11
2023-03-07T23:39:33.464Z,97035.91
2023-03-07T23:44:35.862Z,97035.06
2023-03-07T23:49:37.810Z,97037.09
2023-03-07T23:54:41.963Z,97039.98
2023-03-07T23:59:43.756Z,97039.48
